Terminal Aerodrome Forecast
Issued by NWS

Home | Current Version | Previous Version | Text Only | Print | Product List | Glossary On
Versions: 1 2 3 4 5 6 7 8 9 10 11 12 13 14 15 16 17
246
FTUS41 KPBZ 172333
TAFHLG
TAF
KHLG 172333Z 1800/1824 20005KT P6SM OVC050
     FM180500 21005KT P6SM -DZ OVC045
     FM181100 22005KT P6SM -DZ OVC030
     FM181400 22007KT P6SM -DZ OVC010=

USA.gov is the U.S. government's official web portal to all federal, state and local government web resources and services.